createdAt,value
2017-05-31T00:00:11.010Z,7.24
2017-05-31T00:01:11.002Z,7.11
2017-05-31T00:02:11.293Z,7.04
2017-05-31T00:03:10.978Z,7.09
2017-05-31T00:04:10.972Z,7.15
2017-05-31T00:05:10.961Z,7.01
2017-05-31T00:06:11.252Z,7.18
2017-05-31T00:07:11.246Z,7.3
2017-05-31T00:08:10.934Z,7.41
2017-05-31T00:09:11.230Z,7.52
2017-05-31T00:10:10.918Z,7.57
2017-05-31T00:11:11.210Z,7.55
2017-05-31T00:12:11.200Z,7.5
2017-05-31T00:13:11.187Z,7.48
2017-05-31T00:14:11.177Z,7.57
2017-05-31T00:15:11.169Z,7.52
2017-05-31T00:16:10.864Z,7.57
2017-05-31T00:17:11.155Z,7.54
2017-05-31T00:18:11.145Z,7.44
2017-05-31T00:19:11.134Z,7.39
2017-05-31T00:20:11.125Z,7.41
2017-05-31T00:21:11.112Z,7.39
2017-05-31T00:22:11.107Z,7.37
2017-05-31T00:23:11.104Z,7.45
2017-05-31T00:24:10.790Z,7.48
2017-05-31T00:25:11.080Z,7.58
2017-05-31T00:26:11.076Z,7.39
2017-05-31T00:27:11.063Z,7.36
2017-05-31T00:28:11.053Z,7.37
2017-05-31T00:29:11.048Z,7.33
2017-05-31T00:30:11.033Z,7.34
2017-05-31T00:31:25.641Z,7.32
2017-05-31T00:32:11.016Z,7.3
2017-05-31T00:33:11.005Z,7.3
2017-05-31T00:34:10.999Z,7.42
2017-05-31T00:35:10.689Z,7.36
2017-05-31T00:36:10.982Z,7.42
2017-05-31T00:37:11.172Z,7.3
2017-05-31T00:38:10.656Z,7.3
2017-05-31T00:39:10.950Z,7.32
2017-05-31T00:40:10.943Z,7.29
2017-05-31T00:41:10.932Z,7.27
2017-05-31T00:42:10.623Z,7.3
2017-05-31T00:43:11.115Z,7.37
2017-05-31T00:44:10.609Z,7.54
2017-05-31T00:45:10.895Z,7.6
2017-05-31T00:46:10.585Z,7.57
2017-05-31T00:47:10.880Z,7.57
2017-05-31T00:48:10.572Z,7.55
2017-05-31T00:49:10.862Z,7.7
2017-05-31T00:50:10.251Z,7.66
2017-05-31T00:51:10.842Z,7.5
2017-05-31T00:52:10.833Z,7.48
2017-05-31T00:53:10.822Z,7.48
2017-05-31T00:54:10.819Z,7.73
2017-05-31T00:55:10.203Z,7.47
2017-05-31T00:56:10.801Z,7.29
2017-05-31T00:57:10.793Z,7.11
2017-05-31T00:58:10.478Z,7.14
2017-05-31T00:59:10.473Z,7.07
2017-05-31T01:00:10.462Z,7.18
2017-05-31T01:01:10.753Z,7.44
2017-05-31T01:02:10.746Z,7.7
2017-05-31T01:03:10.435Z,7.73
2017-05-31T01:04:10.123Z,7.41
2017-05-31T01:05:10.413Z,7.3
2017-05-31T01:06:10.405Z,7.27
2017-05-31T01:07:10.099Z,7.39
2017-05-31T01:08:10.703Z,7.51
2017-05-31T01:09:10.685Z,7.45
2017-05-31T01:10:10.682Z,7.47
2017-05-31T01:11:10.667Z,7.57
2017-05-31T01:12:10.358Z,7.52
2017-05-31T01:13:10.652Z,7.44
2017-05-31T01:14:10.637Z,7.47
2017-05-31T01:15:10.328Z,7.34
2017-05-31T01:16:10.623Z,7.34
2017-05-31T01:17:10.613Z,7.26
2017-05-31T01:18:10.302Z,7.26
2017-05-31T01:19:10.589Z,7.5
2017-05-31T01:20:10.583Z,7.37
2017-05-31T01:21:10.278Z,7.32
2017-05-31T01:22:10.567Z,7.27
2017-05-31T01:23:10.254Z,7.32
2017-05-31T01:24:09.943Z,7.32
2017-05-31T01:25:10.239Z,7.42
2017-05-31T01:26:10.229Z,7.51
2017-05-31T01:27:10.221Z,7.5
2017-05-31T01:28:10.510Z,7.48
2017-05-31T01:29:10.503Z,7.42
2017-05-31T01:30:10.495Z,7.32
2017-05-31T01:31:10.512Z,7.12
2017-05-31T01:32:10.173Z,7.04
2017-05-31T01:33:10.160Z,6.96
2017-05-31T01:34:10.156Z,7.04
2017-05-31T01:35:10.141Z,6.99
2017-05-31T01:36:10.439Z,6.9
2017-05-31T01:37:10.435Z,6.96
2017-05-31T01:38:10.121Z,7.07
2017-05-31T01:39:10.408Z,7.18
2017-05-31T01:40:10.401Z,7.29
2017-05-31T01:41:10.088Z,7.33
2017-05-31T01:43:10.574Z,7.32
2017-05-31T01:44:10.061Z,7.32
2017-05-31T01:45:10.055Z,7.41
2017-05-31T01:46:10.043Z,7.47
2017-05-31T01:47:10.036Z,7.54
2017-05-31T01:48:10.029Z,7.73
2017-05-31T01:49:10.522Z,7.63
2017-05-31T01:50:10.008Z,7.39
2017-05-31T01:51:10.001Z,7.33
2017-05-31T01:52:10.294Z,7.12
2017-05-31T01:53:10.279Z,7.01
2017-05-31T01:54:10.276Z,6.89
2017-05-31T01:55:09.964Z,6.86
2017-05-31T01:56:09.949Z,6.64
2017-05-31T01:57:10.247Z,6.48
2017-05-31T01:58:09.935Z,6.72
2017-05-31T01:59:09.928Z,6.83
2017-05-31T02:00:09.917Z,6.53
2017-05-31T02:01:10.208Z,6.51
2017-05-31T02:02:09.898Z,6.54
2017-05-31T02:03:10.188Z,6.64
2017-05-31T02:04:10.183Z,6.72
2017-05-31T02:05:10.172Z,6.79
2017-05-31T02:06:10.163Z,6.89
2017-05-31T02:07:10.151Z,6.9
2017-05-31T02:08:09.844Z,6.82
2017-05-31T02:09:09.834Z,6.73
2017-05-31T02:10:09.525Z,6.72
2017-05-31T02:11:10.120Z,6.68
2017-05-31T02:12:10.110Z,6.81
2017-05-31T02:13:09.796Z,6.87
2017-05-31T02:14:09.783Z,6.58
2017-05-31T02:15:09.783Z,6.73
2017-05-31T02:16:10.067Z,6.68
2017-05-31T02:17:09.759Z,6.82
2017-05-31T02:18:09.745Z,6.94
2017-05-31T02:19:10.038Z,6.87
2017-05-31T02:20:09.724Z,6.86
2017-05-31T02:21:09.714Z,6.9
2017-05-31T02:22:09.718Z,6.75
2017-05-31T02:23:09.697Z,6.58
2017-05-31T02:24:09.689Z,6.57
2017-05-31T02:25:09.975Z,6.55
2017-05-31T02:26:09.664Z,6.71
2017-05-31T02:27:09.956Z,6.68
2017-05-31T02:28:09.946Z,6.65
2017-05-31T02:29:09.634Z,6.61
2017-05-31T02:30:09.625Z,6.54
2017-05-31T02:31:09.914Z,6.73
2017-05-31T02:32:09.605Z,6.86
2017-05-31T02:33:09.598Z,6.91
2017-05-31T02:34:09.893Z,6.87
2017-05-31T02:35:09.576Z,6.87
2017-05-31T02:36:09.326Z,6.86
2017-05-31T02:37:09.859Z,6.57
2017-05-31T02:38:09.248Z,6.57
2017-05-31T02:39:09.842Z,6.53
2017-05-31T02:40:09.825Z,6.35
2017-05-31T02:41:09.518Z,6.27
2017-05-31T02:42:09.810Z,6.21
2017-05-31T02:43:09.797Z,6.17
2017-05-31T02:44:09.484Z,6.19
2017-05-31T02:45:09.778Z,6.1
2017-05-31T02:46:09.472Z,6.11
2017-05-31T02:47:09.458Z,6.25
2017-05-31T02:48:09.444Z,6.21
2017-05-31T02:49:09.738Z,6.27
2017-05-31T02:50:09.729Z,6.27
2017-05-31T02:51:09.720Z,6.03
2017-05-31T02:52:09.707Z,5.99
2017-05-31T02:53:09.699Z,5.93
2017-05-31T02:54:09.691Z,5.62
2017-05-31T02:55:09.682Z,5.62
2017-05-31T02:56:09.672Z,5.69
2017-05-31T02:57:09.658Z,5.63
2017-05-31T02:58:09.646Z,5.63
2017-05-31T02:59:09.333Z,5.63
2017-05-31T03:00:09.623Z,5.59
2017-05-31T03:01:09.616Z,5.58
2017-05-31T03:02:09.311Z,5.65
2017-05-31T03:03:09.594Z,5.62
2017-05-31T03:04:09.587Z,5.52
2017-05-31T03:05:09.267Z,5.49
2017-05-31T03:06:09.562Z,5.55
2017-05-31T03:07:09.552Z,5.49
2017-05-31T03:08:09.236Z,5.65
2017-05-31T03:09:09.529Z,5.55
2017-05-31T03:10:09.218Z,5.63
2017-05-31T03:11:09.510Z,5.42
2017-05-31T03:12:09.202Z,5.4
2017-05-31T03:13:09.494Z,5.51
2017-05-31T03:14:09.177Z,5.55
2017-05-31T03:15:09.469Z,5.48
2017-05-31T03:16:09.456Z,5.63
2017-05-31T03:17:09.451Z,5.7
2017-05-31T03:18:09.436Z,5.77
2017-05-31T03:19:09.424Z,5.7
2017-05-31T03:20:09.423Z,5.74
2017-05-31T03:21:09.404Z,5.8
2017-05-31T03:22:09.093Z,5.83
2017-05-31T03:23:09.381Z,5.81
2017-05-31T03:24:09.370Z,5.75
2017-05-31T03:25:09.362Z,5.74
2017-05-31T03:26:09.350Z,5.77
2017-05-31T03:27:09.339Z,5.78
2017-05-31T03:28:09.329Z,5.78
2017-05-31T03:29:09.321Z,5.83
2017-05-31T03:30:09.306Z,5.83
2017-05-31T03:31:09.293Z,5.85
2017-05-31T03:32:09.286Z,5.78
2017-05-31T03:33:09.277Z,5.92
2017-05-31T03:34:09.262Z,5.96
2017-05-31T03:35:09.252Z,5.99
2017-05-31T03:36:08.946Z,6.21
2017-05-31T03:37:09.232Z,6.27
2017-05-31T03:38:08.921Z,6.2
2017-05-31T03:39:09.212Z,6.06
2017-05-31T03:40:09.203Z,6.17
2017-05-31T03:41:08.890Z,6.24
2017-05-31T03:42:09.182Z,6.25
2017-05-31T03:43:09.168Z,6.32
2017-05-31T03:44:09.160Z,6.35
2017-05-31T03:45:09.150Z,6.36
2017-05-31T03:46:09.140Z,6.33
2017-05-31T03:47:09.133Z,6.27
2017-05-31T03:48:08.819Z,6.35
2017-05-31T03:49:09.110Z,6.32
2017-05-31T03:50:09.104Z,6.51
2017-05-31T03:51:09.091Z,6.51
2017-05-31T03:52:08.779Z,6.57
2017-05-31T03:53:09.072Z,6.78
2017-05-31T03:54:09.059Z,6.96
2017-05-31T03:55:09.055Z,6.81
2017-05-31T03:56:09.043Z,6.81
2017-05-31T03:57:09.032Z,6.35
2017-05-31T03:58:09.022Z,6.16
2017-05-31T03:59:09.010Z,6.02
2017-05-31T04:00:08.702Z,6.01
2017-05-31T04:01:08.993Z,6.17
2017-05-31T04:02:08.680Z,6.39
2017-05-31T04:03:08.970Z,6.54
2017-05-31T04:04:08.961Z,6.5
2017-05-31T04:05:08.956Z,6.51
2017-05-31T04:06:08.941Z,6.51
2017-05-31T04:07:08.934Z,6.53
2017-05-31T04:08:08.922Z,6.57
2017-05-31T04:09:08.917Z,6.42
2017-05-31T04:10:08.605Z,6.2
2017-05-31T04:11:08.894Z,6.2
2017-05-31T04:12:08.887Z,6.21
2017-05-31T04:13:08.876Z,6.36
2017-05-31T04:14:08.867Z,6.46
2017-05-31T04:15:08.557Z,6.51
2017-05-31T04:16:08.848Z,6.54
2017-05-31T04:17:08.835Z,6.38
2017-05-31T04:18:08.830Z,6.3
2017-05-31T04:19:08.817Z,6.35
2017-05-31T04:20:08.822Z,6.3
2017-05-31T04:21:08.797Z,6.36
2017-05-31T04:22:08.488Z,6.3
2017-05-31T04:23:08.781Z,6.33
2017-05-31T04:24:08.461Z,6.39
2017-05-31T04:25:08.753Z,6.38
2017-05-31T04:26:08.744Z,6.45
2017-05-31T04:27:08.734Z,6.43
2017-05-31T04:28:08.718Z,6.36
2017-05-31T04:29:08.709Z,6.28
2017-05-31T04:30:08.696Z,6.24
2017-05-31T04:31:08.685Z,6.19
2017-05-31T04:32:08.676Z,6.19
2017-05-31T04:33:08.669Z,6.21
2017-05-31T04:34:08.655Z,6.17
2017-05-31T04:35:08.645Z,6.25
2017-05-31T04:36:08.635Z,6.32
2017-05-31T04:37:08.620Z,6.3
2017-05-31T04:38:08.610Z,6.35
2017-05-31T04:39:08.600Z,6.43
2017-05-31T04:40:08.591Z,6.42
2017-05-31T04:41:08.580Z,6.48
2017-05-31T04:42:08.576Z,6.57
2017-05-31T04:43:08.559Z,6.53
2017-05-31T04:44:08.551Z,6.53
2017-05-31T04:45:08.535Z,6.51
2017-05-31T04:46:08.533Z,6.51
2017-05-31T04:47:08.510Z,6.51
2017-05-31T04:48:08.516Z,6.48
2017-05-31T04:49:08.489Z,6.54
2017-05-31T04:50:08.480Z,6.54
2017-05-31T04:51:08.166Z,6.58
2017-05-31T04:52:08.459Z,6.64
2017-05-31T04:53:08.145Z,6.61
2017-05-31T04:54:08.439Z,6.64
2017-05-31T04:55:08.125Z,6.54
2017-05-31T04:56:08.416Z,6.54
2017-05-31T04:57:08.408Z,6.58
2017-05-31T04:58:08.395Z,6.53
2017-05-31T04:59:08.382Z,6.5
2017-05-31T05:00:08.373Z,6.5
2017-05-31T05:01:08.365Z,6.53
2017-05-31T05:02:08.349Z,6.55
2017-05-31T05:03:08.038Z,6.53
2017-05-31T05:04:08.327Z,6.53
2017-05-31T05:05:08.016Z,6.54
2017-05-31T05:06:08.308Z,6.51
2017-05-31T05:07:08.295Z,6.57
2017-05-31T05:08:08.286Z,6.73
2017-05-31T05:09:08.277Z,6.61
2017-05-31T05:10:08.266Z,6.69
2017-05-31T05:11:08.254Z,6.75
2017-05-31T05:12:08.247Z,6.69
2017-05-31T05:13:08.233Z,6.76
2017-05-31T05:14:08.223Z,6.69
2017-05-31T05:15:07.909Z,6.78
2017-05-31T05:16:08.200Z,6.72
2017-05-31T05:17:07.885Z,6.75
2017-05-31T05:18:08.179Z,6.68
2017-05-31T05:19:08.172Z,6.79
2017-05-31T05:20:07.555Z,6.78
2017-05-31T05:21:08.147Z,6.89
2017-05-31T05:22:08.144Z,6.83
2017-05-31T05:23:08.136Z,6.79
2017-05-31T05:24:07.820Z,6.89
2017-05-31T05:25:07.812Z,6.82
2017-05-31T05:26:08.101Z,7.04
2017-05-31T05:27:08.091Z,7.08
2017-05-31T05:28:08.077Z,6.97
2017-05-31T05:29:08.068Z,7.12
2017-05-31T05:30:08.061Z,7.23
2017-05-31T05:31:08.048Z,7.14
2017-05-31T05:32:08.036Z,7.14
2017-05-31T05:33:08.027Z,7.07
2017-05-31T05:34:08.020Z,7.04
2017-05-31T05:35:07.703Z,7.16
2017-05-31T05:36:07.999Z,7.15
2017-05-31T05:37:07.686Z,7.3
2017-05-31T05:38:07.975Z,7.3
2017-05-31T05:39:07.968Z,7.3
2017-05-31T05:40:07.710Z,7.21
2017-05-31T05:41:07.951Z,7.16
2017-05-31T05:42:07.946Z,7.14
2017-05-31T05:43:07.939Z,7.21
2017-05-31T05:44:07.917Z,7.41
2017-05-31T05:45:07.912Z,7.36
2017-05-31T05:46:07.901Z,7.32
2017-05-31T05:47:07.893Z,7.41
2017-05-31T05:48:07.580Z,7.42
2017-05-31T05:49:07.874Z,7.39
2017-05-31T05:50:07.559Z,7.55
2017-05-31T05:51:07.855Z,7.39
2017-05-31T05:52:07.846Z,7.47
2017-05-31T05:53:07.835Z,7.54
2017-05-31T05:54:07.527Z,7.6
2017-05-31T05:55:07.822Z,7.47
2017-05-31T05:56:07.813Z,7.52
2017-05-31T05:57:07.493Z,7.52
2017-05-31T05:58:07.786Z,7.52
2017-05-31T05:59:07.476Z,7.54
2017-05-31T06:00:07.462Z,7.62
2017-05-31T06:01:07.759Z,7.62
2017-05-31T06:02:07.750Z,7.58
2017-05-31T06:03:07.742Z,7.71
2017-05-31T06:04:07.771Z,7.74
2017-05-31T06:05:07.732Z,7.95
2017-05-31T06:06:07.756Z,8
2017-05-31T06:07:07.401Z,8.22
2017-05-31T06:08:07.694Z,8.34
2017-05-31T06:09:07.688Z,8.32
2017-05-31T06:10:07.669Z,8.29
2017-05-31T06:11:07.662Z,8.28
2017-05-31T06:12:07.350Z,8.32
2017-05-31T06:13:07.646Z,8.42
2017-05-31T06:14:07.637Z,8.46
2017-05-31T06:15:07.625Z,8.47
2017-05-31T06:16:07.619Z,8.29
2017-05-31T06:17:07.309Z,8.39
2017-05-31T06:18:07.303Z,8.46
2017-05-31T06:19:07.596Z,8.54
2017-05-31T06:20:06.981Z,8.58
2017-05-31T06:21:07.629Z,8.73
2017-05-31T06:22:07.270Z,8.78
2017-05-31T06:23:06.957Z,8.91
2017-05-31T06:24:07.549Z,9
2017-05-31T06:25:07.541Z,9.06
2017-05-31T06:26:07.544Z,9.24
2017-05-31T06:27:07.524Z,9.4
2017-05-31T06:28:07.517Z,9.35
2017-05-31T06:29:07.509Z,9.34
2017-05-31T06:30:07.496Z,9.37
2017-05-31T06:31:07.188Z,9.37
2017-05-31T06:32:07.185Z,9.37
2017-05-31T06:33:07.469Z,9.35
2017-05-31T06:34:07.464Z,9.49
2017-05-31T06:35:07.467Z,9.98
2017-05-31T06:36:07.150Z,10.7
2017-05-31T06:37:07.438Z,11.48
2017-05-31T06:38:07.435Z,11.59
2017-05-31T06:39:07.422Z,11.82
2017-05-31T06:40:07.413Z,12.4
2017-05-31T06:41:07.408Z,12.41
2017-05-31T06:42:07.099Z,12.63
2017-05-31T06:43:07.392Z,12.88
2017-05-31T06:44:07.086Z,13.03
2017-05-31T06:45:07.380Z,12.63
2017-05-31T06:46:07.377Z,12.84
2017-05-31T06:47:07.368Z,13.07
2017-05-31T06:48:07.356Z,13.47
2017-05-31T06:49:07.350Z,13.51
2017-05-31T06:50:07.040Z,13.48
2017-05-31T06:51:07.336Z,13.79
2017-05-31T06:52:07.332Z,13.93
2017-05-31T06:53:07.021Z,13.76
2017-05-31T06:54:07.315Z,13.8
2017-05-31T06:55:07.307Z,13.75
2017-05-31T06:56:07.000Z,13.94
2017-05-31T06:57:07.296Z,14.09
2017-05-31T06:58:07.290Z,14.09
2017-05-31T06:59:07.281Z,14.29
2017-05-31T07:00:07.274Z,14.41
2017-05-31T07:01:07.270Z,14.52
2017-05-31T07:02:07.263Z,14.87
2017-05-31T07:03:07.254Z,14.75
2017-05-31T07:04:07.255Z,14.52
2017-05-31T07:05:07.245Z,14.11
2017-05-31T07:06:07.239Z,13.79
2017-05-31T07:07:07.234Z,13.63
2017-05-31T07:08:07.228Z,13.39
2017-05-31T07:09:06.917Z,13.54
2017-05-31T07:10:06.909Z,14.01
2017-05-31T07:11:07.208Z,14.31
2017-05-31T07:12:07.201Z,14.53
2017-05-31T07:13:07.201Z,13.68
2017-05-31T07:14:07.194Z,13.9
2017-05-31T07:15:07.185Z,14.04
2017-05-31T07:16:07.177Z,13.94
2017-05-31T07:17:07.171Z,13.91
2017-05-31T07:18:06.864Z,13.69
2017-05-31T07:19:07.160Z,13.65
2017-05-31T07:20:06.853Z,13.22
2017-05-31T07:21:07.145Z,13.5
2017-05-31T07:22:07.148Z,12.87
2017-05-31T07:23:07.143Z,12.61
2017-05-31T07:24:07.135Z,12.15
2017-05-31T07:25:07.131Z,11.63
2017-05-31T07:26:07.119Z,12.12
2017-05-31T07:27:07.113Z,12.71
2017-05-31T07:28:07.111Z,13.54
2017-05-31T07:29:07.102Z,14.31
2017-05-31T07:30:06.803Z,15
2017-05-31T07:31:07.089Z,15.59
2017-05-31T07:32:07.085Z,16.11
2017-05-31T07:33:07.079Z,16.04
2017-05-31T07:34:07.075Z,16.23
2017-05-31T07:35:07.071Z,16.16
2017-05-31T07:36:07.065Z,16.32
2017-05-31T07:37:07.059Z,16.33
2017-05-31T07:38:07.054Z,16.63
2017-05-31T07:39:07.050Z,16.84
2017-05-31T07:40:07.050Z,17.25
2017-05-31T07:41:06.742Z,17.28
2017-05-31T07:42:06.734Z,17.32
2017-05-31T07:43:07.032Z,17.38
2017-05-31T07:44:07.034Z,17.51
2017-05-31T07:45:06.722Z,17.65
2017-05-31T07:46:07.021Z,17.71
2017-05-31T07:47:07.016Z,17.86
2017-05-31T07:48:07.011Z,17.83
2017-05-31T07:49:07.006Z,17.77
2017-05-31T07:50:07.002Z,17.62
2017-05-31T07:51:07.001Z,17.09
2017-05-31T07:52:06.996Z,17.14
2017-05-31T07:53:07.014Z,17.06
2017-05-31T07:54:06.982Z,17.17
2017-05-31T07:55:06.983Z,16.73
2017-05-31T07:56:06.685Z,16.8
2017-05-31T07:57:06.981Z,16.78
2017-05-31T07:58:06.676Z,16.54
2017-05-31T07:59:06.968Z,16.3
2017-05-31T08:00:06.961Z,16.51
2017-05-31T08:01:06.956Z,16.59
2017-05-31T08:02:06.949Z,16.66
2017-05-31T08:03:06.949Z,16.77
2017-05-31T08:04:06.944Z,17.06
2017-05-31T08:05:06.940Z,17.21
2017-05-31T08:06:06.638Z,17.3
2017-05-31T08:07:06.930Z,17.28
2017-05-31T08:08:06.930Z,17.3
2017-05-31T08:09:06.923Z,17.33
2017-05-31T08:10:06.918Z,17.3
2017-05-31T08:11:06.615Z,17.17
2017-05-31T08:12:06.920Z,17.2
2017-05-31T08:13:06.911Z,17.3
2017-05-31T08:14:06.908Z,17
2017-05-31T08:15:06.605Z,17.07
2017-05-31T08:16:06.905Z,17.06
2017-05-31T08:17:06.594Z,17.15
2017-05-31T08:18:06.951Z,17.17
2017-05-31T08:19:06.892Z,16.95
2017-05-31T08:20:06.890Z,16.6
2017-05-31T08:21:06.598Z,16.75
2017-05-31T08:22:06.882Z,16.88
2017-05-31T08:23:06.576Z,17.02
2017-05-31T08:24:06.569Z,17.32
2017-05-31T08:25:06.874Z,17.17
2017-05-31T08:26:06.866Z,17.3
2017-05-31T08:27:06.871Z,17.51
2017-05-31T08:28:06.862Z,17.81
2017-05-31T08:29:06.858Z,17.96
2017-05-31T08:30:06.854Z,18.1
2017-05-31T08:31:06.847Z,18.39
2017-05-31T08:32:06.846Z,18.35
2017-05-31T08:33:06.842Z,18.23
2017-05-31T08:34:06.843Z,17.71
2017-05-31T08:35:06.847Z,17.55
2017-05-31T08:36:06.832Z,17.35
2017-05-31T08:37:06.828Z,17.12
2017-05-31T08:38:06.826Z,17.35
2017-05-31T08:39:06.823Z,18.02
2017-05-31T08:40:06.824Z,18.71
2017-05-31T08:41:06.821Z,19.2
2017-05-31T08:42:06.816Z,19.65
2017-05-31T08:43:06.809Z,19.83
2017-05-31T08:44:06.804Z,20.23
2017-05-31T08:45:06.504Z,20.13
2017-05-31T08:46:06.502Z,20.54
2017-05-31T08:47:06.805Z,21.09
2017-05-31T08:48:06.798Z,21.46
2017-05-31T08:49:06.802Z,21.82
2017-05-31T08:50:06.798Z,22.04
2017-05-31T08:51:06.793Z,21.61
2017-05-31T08:52:06.851Z,21.79
2017-05-31T08:53:06.792Z,22.17
2017-05-31T08:54:06.785Z,22.35
2017-05-31T08:55:06.786Z,22.19
2017-05-31T08:56:06.479Z,21.86
2017-05-31T08:57:06.780Z,21.63
2017-05-31T08:58:06.778Z,21.83
2017-05-31T08:59:06.475Z,22.11
2017-05-31T09:00:06.776Z,22.17
2017-05-31T09:01:06.778Z,22.29
2017-05-31T09:02:06.777Z,22.39
2017-05-31T09:03:06.775Z,22.01
2017-05-31T09:04:06.777Z,21.86
2017-05-31T09:05:06.475Z,21.71
2017-05-31T09:06:06.471Z,21.94
2017-05-31T09:07:06.778Z,21.66
2017-05-31T09:08:06.771Z,21.28
2017-05-31T09:09:06.768Z,21.18
2017-05-31T09:10:06.769Z,21.31
2017-05-31T09:11:06.471Z,21.15
2017-05-31T09:12:06.472Z,21.48
2017-05-31T09:13:06.771Z,21.68
2017-05-31T09:14:06.771Z,21.59
2017-05-31T09:15:06.774Z,21.48
2017-05-31T09:16:06.767Z,21.48
2017-05-31T09:17:06.468Z,21.27
2017-05-31T09:18:06.766Z,21.22
2017-05-31T09:19:06.768Z,21.49
2017-05-31T09:20:06.464Z,21.61
2017-05-31T09:21:06.760Z,21.51
2017-05-31T09:22:06.761Z,21.52
2017-05-31T09:23:06.761Z,20.96
2017-05-31T09:24:06.756Z,20.22
2017-05-31T09:25:06.759Z,20.72
2017-05-31T09:26:06.754Z,21.09
2017-05-31T09:27:06.758Z,21.36
2017-05-31T09:28:06.751Z,21.51
2017-05-31T09:29:06.750Z,20.75
2017-05-31T09:30:06.749Z,20.46
2017-05-31T09:31:06.444Z,20.38
2017-05-31T09:32:06.744Z,19.58
2017-05-31T09:33:06.746Z,19.6
2017-05-31T09:34:06.742Z,19.64
2017-05-31T09:35:06.741Z,19.07
2017-05-31T09:36:06.739Z,18.32
2017-05-31T09:37:06.736Z,18.19
2017-05-31T09:38:06.732Z,18.02
2017-05-31T09:39:06.737Z,17.77
2017-05-31T09:40:06.730Z,17.02
2017-05-31T09:41:06.783Z,17.06
2017-05-31T09:42:06.730Z,16.8
2017-05-31T09:43:06.723Z,16.95
2017-05-31T09:44:06.422Z,16.8
2017-05-31T09:45:06.720Z,16.63
2017-05-31T09:46:06.718Z,16.17
2017-05-31T09:47:06.411Z,15.92
2017-05-31T09:48:06.707Z,15.85
2017-05-31T09:49:06.407Z,15.68
2017-05-31T09:50:06.401Z,16.17
2017-05-31T09:51:06.398Z,16.34
2017-05-31T09:52:06.699Z,16.85
2017-05-31T09:53:06.697Z,17.05
2017-05-31T09:54:06.692Z,17.03
2017-05-31T09:55:06.685Z,16.59
2017-05-31T09:56:06.688Z,16.48
2017-05-31T09:57:06.684Z,16.29
2017-05-31T09:58:06.680Z,16.48
2017-05-31T09:59:06.677Z,16.57
2017-05-31T10:00:06.672Z,16.91
2017-05-31T10:01:06.672Z,17.17
2017-05-31T10:02:06.664Z,17.05
2017-05-31T10:03:06.664Z,17.3
2017-05-31T10:04:06.659Z,17.05
2017-05-31T10:05:06.359Z,17.02
2017-05-31T10:06:06.647Z,17.03
2017-05-31T10:07:06.647Z,17.07
2017-05-31T10:08:06.646Z,16.95
2017-05-31T10:09:06.644Z,16.78
2017-05-31T10:10:06.641Z,16.54
2017-05-31T10:11:06.340Z,16.1
2017-05-31T10:12:06.334Z,15.95
2017-05-31T10:13:06.628Z,15.84
2017-05-31T10:14:06.638Z,15.74
2017-05-31T10:15:06.621Z,15.66
2017-05-31T10:16:06.320Z,15.91
2017-05-31T10:17:06.311Z,16.18
2017-05-31T10:18:06.309Z,16.01
2017-05-31T10:19:06.612Z,16.14
2017-05-31T10:20:06.605Z,16.01
2017-05-31T10:21:06.607Z,16.08
2017-05-31T10:22:06.599Z,16.55
2017-05-31T10:23:06.599Z,17.24
2017-05-31T10:24:06.594Z,17.87
2017-05-31T10:25:06.286Z,18.39
2017-05-31T10:26:06.584Z,19.09
2017-05-31T10:27:06.582Z,19.67
2017-05-31T10:28:06.579Z,20.01
2017-05-31T10:29:06.278Z,20.56
2017-05-31T10:30:06.573Z,20.35
2017-05-31T10:31:06.567Z,19.01
2017-05-31T10:32:06.564Z,17.87
2017-05-31T10:33:06.558Z,17.32
2017-05-31T10:34:06.258Z,17.03
2017-05-31T10:35:06.564Z,16.59
2017-05-31T10:36:06.552Z,16.44
2017-05-31T10:37:06.552Z,16.37
2017-05-31T10:38:06.245Z,16.03
2017-05-31T10:39:06.242Z,15.62
2017-05-31T10:40:06.537Z,14.9
2017-05-31T10:41:06.535Z,14.61
2017-05-31T10:42:06.229Z,14.79
2017-05-31T10:43:06.223Z,15.05
2017-05-31T10:44:06.223Z,15.55
2017-05-31T10:45:05.917Z,16.6
2017-05-31T10:46:06.218Z,17.18
2017-05-31T10:47:06.520Z,17.53
2017-05-31T10:48:06.548Z,17.74
2017-05-31T10:49:06.508Z,16.96
2017-05-31T10:50:06.204Z,15.88
2017-05-31T10:51:06.197Z,15.52
2017-05-31T10:52:06.498Z,15.73
2017-05-31T10:53:06.498Z,16.11
2017-05-31T10:54:06.191Z,16.14
2017-05-31T10:55:06.495Z,15.91
2017-05-31T10:56:06.486Z,15.7
2017-05-31T10:57:06.185Z,15.53
2017-05-31T10:58:06.479Z,15.44
2017-05-31T10:59:06.166Z,16.04
2017-05-31T11:00:06.470Z,15.18
2017-05-31T11:01:06.463Z,15.67
2017-05-31T11:02:06.462Z,15.95
2017-05-31T11:03:06.456Z,15.41
2017-05-31T11:04:06.448Z,14.83
2017-05-31T11:05:06.449Z,14.82
2017-05-31T11:06:06.446Z,15.04
2017-05-31T11:07:06.138Z,15.16
2017-05-31T11:08:06.436Z,15.96
2017-05-31T11:09:06.432Z,16.14
2017-05-31T11:10:06.426Z,16.98
2017-05-31T11:11:06.419Z,16.84
2017-05-31T11:12:06.420Z,17.43
2017-05-31T11:13:06.418Z,17.24
2017-05-31T11:14:06.111Z,16.47
2017-05-31T11:15:06.409Z,15.59
2017-05-31T11:16:06.400Z,15.52
2017-05-31T11:17:06.097Z,15.6
2017-05-31T11:18:06.394Z,15.77
2017-05-31T11:19:06.394Z,16.06
2017-05-31T11:20:06.386Z,16.44
2017-05-31T11:21:06.392Z,17.4
2017-05-31T11:22:06.388Z,17.7
2017-05-31T11:23:06.383Z,16.87
2017-05-31T11:24:06.375Z,16.84
2017-05-31T11:25:06.370Z,16.75
2017-05-31T11:26:06.365Z,16.52
2017-05-31T11:27:06.364Z,16.33
2017-05-31T11:28:06.359Z,16.54
2017-05-31T11:29:06.357Z,16.63
2017-05-31T11:30:06.351Z,16.78
2017-05-31T11:31:06.345Z,16.85
2017-05-31T11:32:06.346Z,16.98
2017-05-31T11:33:06.040Z,17.4
2017-05-31T11:34:06.340Z,18.6
2017-05-31T11:35:06.333Z,19.25
2017-05-31T11:36:06.328Z,18.91
2017-05-31T11:37:06.325Z,17.79
2017-05-31T11:38:06.320Z,17.18
2017-05-31T11:39:06.322Z,16.92
2017-05-31T11:40:06.318Z,17.27
2017-05-31T11:41:06.314Z,18.04
2017-05-31T11:42:06.314Z,17.92
2017-05-31T11:43:06.305Z,18.05
2017-05-31T11:44:06.302Z,17.3
2017-05-31T11:45:06.306Z,16.08
2017-05-31T11:46:06.298Z,15.3
2017-05-31T11:47:05.993Z,14.95
2017-05-31T11:48:06.292Z,15.07
2017-05-31T11:49:06.286Z,14.94
2017-05-31T11:50:05.684Z,15.11
2017-05-31T11:51:06.283Z,14.87
2017-05-31T11:52:06.301Z,14.13
2017-05-31T11:53:06.274Z,13.71
2017-05-31T11:54:06.270Z,13.32
2017-05-31T11:55:06.265Z,13.55
2017-05-31T11:56:06.263Z,13.47
2017-05-31T11:57:06.260Z,13.75
2017-05-31T11:58:06.250Z,13.53
2017-05-31T11:59:06.248Z,13.43
2017-05-31T12:00:06.247Z,13.68
2017-05-31T12:01:06.250Z,13.54
2017-05-31T12:02:05.935Z,13.61
2017-05-31T12:03:05.933Z,14.11
2017-05-31T12:04:06.226Z,13.99
2017-05-31T12:05:06.226Z,13.99
2017-05-31T12:06:06.217Z,14.19
2017-05-31T12:07:06.216Z,14.01
2017-05-31T12:08:06.205Z,13.86
2017-05-31T12:09:05.905Z,13.76
2017-05-31T12:10:06.200Z,13.65
2017-05-31T12:11:06.194Z,13.09
2017-05-31T12:12:06.188Z,13.13
2017-05-31T12:13:06.192Z,13.14
2017-05-31T12:14:06.180Z,13.41
2017-05-31T12:15:06.176Z,13.73
2017-05-31T12:16:06.172Z,13.81
2017-05-31T12:17:06.169Z,13.81
2017-05-31T12:18:06.158Z,13.68
2017-05-31T12:19:06.154Z,13.71
2017-05-31T12:20:05.853Z,13.98
2017-05-31T12:21:06.144Z,14.42
2017-05-31T12:22:06.141Z,14.41
2017-05-31T12:23:06.139Z,14.42
2017-05-31T12:24:06.127Z,14.45
2017-05-31T12:25:05.823Z,14.36
2017-05-31T12:26:06.120Z,14.67
2017-05-31T12:27:06.116Z,14.94
2017-05-31T12:28:06.108Z,15.22
2017-05-31T12:29:05.806Z,15.31
2017-05-31T12:30:05.802Z,15.15
2017-05-31T12:31:06.097Z,15.12
2017-05-31T12:32:06.092Z,15.01
2017-05-31T12:33:06.087Z,15.05
2017-05-31T12:34:06.082Z,14.79
2017-05-31T12:35:06.081Z,14.64
2017-05-31T12:36:06.075Z,14.61
2017-05-31T12:37:06.072Z,14.39
2017-05-31T12:38:06.067Z,13.62
2017-05-31T12:39:06.063Z,13.12
2017-05-31T12:40:06.058Z,12.84
2017-05-31T12:41:06.054Z,12.94
2017-05-31T12:42:06.052Z,12.98
2017-05-31T12:43:06.042Z,12.88
2017-05-31T12:44:06.040Z,12.73
2017-05-31T12:45:05.735Z,12.77
2017-05-31T12:46:06.039Z,12.3
2017-05-31T12:47:06.019Z,12.12
2017-05-31T12:48:05.719Z,12.41
2017-05-31T12:49:06.012Z,12.59
2017-05-31T12:50:06.011Z,12.69
2017-05-31T12:51:06.011Z,12.63
2017-05-31T12:52:05.998Z,12.58
2017-05-31T12:53:05.990Z,12.56
2017-05-31T12:54:05.981Z,12.36
2017-05-31T12:55:05.678Z,12.01
2017-05-31T12:56:05.671Z,11.62
2017-05-31T12:57:05.366Z,11.46
2017-05-31T12:58:05.966Z,11.27
2017-05-31T12:59:05.971Z,11.48
2017-05-31T13:00:05.953Z,11.93
2017-05-31T13:01:05.951Z,12.46
2017-05-31T13:02:05.937Z,12.56
2017-05-31T13:03:05.933Z,12.38
2017-05-31T13:04:05.927Z,12.01
2017-05-31T13:05:05.924Z,11.57
2017-05-31T13:06:05.919Z,11.63
2017-05-31T13:07:05.926Z,11.38
2017-05-31T13:08:05.910Z,11.33
2017-05-31T13:09:05.901Z,11.31